NZCH (Christchurch International Airport)      (ORBX NZSI)

 RUNWAY INFORMATION
Runway Number 01 Runway Length 1690 ft Runway Width 229 ft
Runway Elevation 0 ft Runway Displaced Threshold 0 ft Runway Surface GRS
Runway Number 19 Runway Length 1690 ft Runway Width 229 ft
Runway Elevation 0 ft Runway Displaced Threshold 0 ft Runway Surface GRS
Runway Number 02 Runway Length 10787 ft Runway Width 148 ft
Runway Elevation 123 ft Runway Displaced Threshold 0 ft Runway Surface Asphalt
Runway Number 20 Runway Length 10787 ft Runway Width 148 ft
Runway Elevation 93 ft Runway Displaced Threshold 0 ft Runway Surface Asphalt
Runway Number 11 Runway Length 5587 ft Runway Width 148 ft
Runway Elevation 115 ft Runway Displaced Threshold 0 ft Runway Surface Bitumen
Runway Number 29 Runway Length 5587 ft Runway Width 148 ft
Runway Elevation 95 ft Runway Displaced Threshold 0 ft Runway Surface Bitumen

  METAR AND TAF INFORMATION
METAR FOR NZCH
ADDS - METARS form results

(0701 UTC 20 April 2018)
Data provider: http://aviationweather.gov/adds/metars/
 
METAR text: NZCH 200630Z AUTO 31013KT 9999 NCD 18/04 Q1000 NOSIG
Conditions at: NZCH (CHRISTCHURCH INT, NZ) observed 0630 UTC 20 April 2018
Temperature: 18.0°C (64°F)
Dewpoint: 4.0°C (39°F) [RH = 39%]
Pressure (altimeter): 29.53 inches Hg (1000.0 mb)
Winds: from the NW (310 degrees) at 15 MPH (13 knots; 6.8 m/s)
Visibility: 6 or more miles (10+ km)
Ceiling: at least 12,000 feet AGL
Clouds: sky clear below 12,000 feet AGL
Weather: no significant weather observed at this time

Forecast for: NZCH (CHRISTCHURCH INT, NZ)
Text: TAF NZCH 200517Z 2006/2106 32015G25KT CAVOK
Forecast period: 0600 to 1200 UTC 20 April 2018
Forecast type: FROM: standard forecast or significant change
Winds: from the NW (320 degrees) at 17 MPH (15 knots; 7.8 m/s)
gusting to 29 MPH (25 knots; 13.0 m/s)
Visibility: 6 or more miles (10+ km)
Clouds: not forecast
Weather: NSW  (no significant weather)
Forecast for: NZCH (CHRISTCHURCH INT, NZ)
Text: TAF NZCH 200517Z 2006/2106 32015G25KT CAVOK
Forecast period: 0600 to 1200 UTC 20 April 2018
Forecast type: FROM: standard forecast or significant change
Winds: from the NW (320 degrees) at 17 MPH (15 knots; 7.8 m/s)
gusting to 29 MPH (25 knots; 13.0 m/s)
Visibility: 6 or more miles (10+ km)
Clouds: not forecast
Weather: NSW  (no significant weather)
Forecast for: NZCH (CHRISTCHURCH INT, NZ)
Text: TAF NZCH 200517Z 2006/2106 32015G25KT CAVOK
Forecast period: 1200 to 2000 UTC 20 April 2018
Forecast type: BECOMING: Conditions expected to become as follows by 1400 UTC 20 April 2018
Winds: from the N (360 degrees) at 9 MPH (8 knots; 4.2 m/s)
Visibility: 6 or more miles (10+ km)
Weather: NSW  (no significant weather)
Forecast for: NZCH (CHRISTCHURCH INT, NZ)
Text: TAF NZCH 200517Z 2006/2106 32015G25KT CAVOK
Forecast period: 1200 to 2000 UTC 20 April 2018
Forecast type: BECOMING: Conditions expected to become as follows by 1400 UTC 20 April 2018
Winds: from the N (360 degrees) at 9 MPH (8 knots; 4.2 m/s)
Visibility: 6 or more miles (10+ km)
Weather: NSW  (no significant weather)
Forecast for: NZCH (CHRISTCHURCH INT, NZ)
Text: TAF NZCH 200517Z 2006/2106 32015G25KT CAVOK
Forecast period: 2000 to 2200 UTC 20 April 2018
Forecast type: BECOMING: Conditions expected to become as follows by 2200 UTC 20 April 2018
Winds: from the NW (320 degrees) at 12 MPH (10 knots; 5.2 m/s)
Visibility: 6 or more miles (10+ km)
Weather: NSW  (no significant weather)
Forecast for: NZCH (CHRISTCHURCH INT, NZ)
Text: TAF NZCH 200517Z 2006/2106 32015G25KT CAVOK
Forecast period: 2000 to 2200 UTC 20 April 2018
Forecast type: BECOMING: Conditions expected to become as follows by 2200 UTC 20 April 2018
Winds: from the NW (320 degrees) at 12 MPH (10 knots; 5.2 m/s)
Visibility: 6 or more miles (10+ km)
Weather: NSW  (no significant weather)
Forecast for: NZCH (CHRISTCHURCH INT, NZ)
Text: TAF NZCH 200517Z 2006/2106 32015G25KT CAVOK
Forecast period: 2200 UTC 20 April 2018 to 0400 UTC 21 April 2018
Forecast type: BECOMING: Conditions expected to become as follows by 0000 UTC 21 April 2018
Winds: from the NW (320 degrees) at 17 MPH (15 knots; 7.8 m/s)
gusting to 29 MPH (25 knots; 13.0 m/s)
Visibility: 6 or more miles (10+ km)
Weather: NSW  (no significant weather)
Forecast for: NZCH (CHRISTCHURCH INT, NZ)
Text: TAF NZCH 200517Z 2006/2106 32015G25KT CAVOK
Forecast period: 2200 UTC 20 April 2018 to 0400 UTC 21 April 2018
Forecast type: BECOMING: Conditions expected to become as follows by 0000 UTC 21 April 2018
Winds: from the NW (320 degrees) at 17 MPH (15 knots; 7.8 m/s)
gusting to 29 MPH (25 knots; 13.0 m/s)
Visibility: 6 or more miles (10+ km)
Weather: NSW  (no significant weather)
Forecast for: NZCH (CHRISTCHURCH INT, NZ)
Text: TAF NZCH 200517Z 2006/2106 32015G25KT CAVOK
Forecast period: 0400 to 0600 UTC 21 April 2018
Forecast type: BECOMING: Conditions expected to become as follows by 0600 UTC 21 April 2018
Winds: from the SSW (200 degrees) at 14 MPH (12 knots; 6.2 m/s)
Visibility: 6 or more miles (10+ km)
Weather: NSW  (no significant weather)
Forecast for: NZCH (CHRISTCHURCH INT, NZ)
Text: TAF NZCH 200517Z 2006/2106 32015G25KT CAVOK
Forecast period: 0400 to 0600 UTC 21 April 2018
Forecast type: BECOMING: Conditions expected to become as follows by 0600 UTC 21 April 2018
Winds: from the SSW (200 degrees) at 14 MPH (12 knots; 6.2 m/s)
Visibility: 6 or more miles (10+ km)
Weather: NSW  (no significant weather)
Forecast for: NZCH (CHRISTCHURCH INT, NZ)
Text: TAF NZCH 200517Z 2006/2106 32015G25KT CAVOK
Forecast period: 0400 to 0600 UTC 21 April 2018
Forecast type: TEMPORARY: The following changes expected for less than half the time period
Visibility: 4 miles (6 km)
Clouds: few clouds at 2000 feet AGL
Weather: SHRA  (rain showers)
Forecast for: NZCH (CHRISTCHURCH INT, NZ)
Text: TAF NZCH 200517Z 2006/2106 32015G25KT CAVOK
Forecast period: 0400 to 0600 UTC 21 April 2018
Forecast type: TEMPORARY: The following changes expected for less than half the time period
Visibility: 4 miles (6 km)
Clouds: few clouds at 2000 feet AGL
Weather: SHRA  (rain showers)

 AIRPORT FREQUENCIES
Type APP Name APP Frequency 124.1 MHZ
Type ATIS Name ATIS Frequency 127.2 MHZ
Type CTRL Name Control Frequency 120.9 MHZ
Type Delivery Name Delivery Frequency 128.2 MHZ
Type GND Name GND Frequency 121.9 MHZ
Type OPS Name AMC OPS Frequency 122.5 MHZ
Type TWR Name TWR Frequency 118.4 MHZ

 NEARBY NAVIGATION AIDS
Type NDB Name Burnham Frequency 374 KHZ
Type VOR-DME Name Christchurch Frequency 115300 KHZ
Type NDB Name Woodend Frequency 262 KHZ
Type VOR-DME Name Eyrewell Frequency 116600 KHZ



Powered by Virtual Airlines Manager